sensor_id;sensor_type;location;lat;lon;timestamp;P1;durP1;ratioP1;P2;durP2;ratioP2
75628;SDS011;64213;46.452;16.994;2023-03-04T00:01:55;83.28;;;20.73;;
75628;SDS011;64213;46.452;16.994;2023-03-04T00:04:57;67.20;;;18.42;;
75628;SDS011;64213;46.452;16.994;2023-03-04T00:07:59;72.72;;;17.65;;
75628;SDS011;64213;46.452;16.994;2023-03-04T00:11:01;77.10;;;20.33;;
75628;SDS011;64213;46.452;16.994;2023-03-04T00:14:03;47.00;;;17.50;;
75628;SDS011;64213;46.452;16.994;2023-03-04T00:17:05;54.03;;;18.83;;
75628;SDS011;64213;46.452;16.994;2023-03-04T00:20:08;68.80;;;19.08;;
75628;SDS011;64213;46.452;16.994;2023-03-04T00:23:10;60.30;;;18.95;;
75628;SDS011;64213;46.452;16.994;2023-03-04T00:26:13;49.07;;;19.70;;
75628;SDS011;64213;46.452;16.994;2023-03-04T00:29:15;42.23;;;18.23;;
75628;SDS011;64213;46.452;16.994;2023-03-04T00:32:17;43.40;;;17.37;;
75628;SDS011;64213;46.452;16.994;2023-03-04T00:35:19;50.17;;;19.40;;
75628;SDS011;64213;46.452;16.994;2023-03-04T00:38:21;45.50;;;18.40;;
75628;SDS011;64213;46.452;16.994;2023-03-04T00:41:24;38.20;;;17.90;;
75628;SDS011;64213;46.452;16.994;2023-03-04T00:44:26;41.57;;;17.07;;
75628;SDS011;64213;46.452;16.994;2023-03-04T00:47:28;38.95;;;18.00;;
75628;SDS011;64213;46.452;16.994;2023-03-04T00:50:30;42.58;;;17.50;;
75628;SDS011;64213;46.452;16.994;2023-03-04T00:53:32;45.88;;;17.02;;
75628;SDS011;64213;46.452;16.994;2023-03-04T00:56:34;50.03;;;16.60;;
75628;SDS011;64213;46.452;16.994;2023-03-04T00:59:36;43.55;;;17.37;;
75628;SDS011;64213;46.452;16.994;2023-03-04T01:02:38;42.50;;;17.90;;
75628;SDS011;64213;46.452;16.994;2023-03-04T01:05:41;38.92;;;17.87;;
75628;SDS011;64213;46.452;16.994;2023-03-04T01:08:43;39.80;;;14.75;;
75628;SDS011;64213;46.452;16.994;2023-03-04T01:11:45;41.80;;;16.40;;
75628;SDS011;64213;46.452;16.994;2023-03-04T01:14:47;41.33;;;17.83;;
75628;SDS011;64213;46.452;16.994;2023-03-04T01:17:49;39.70;;;18.10;;
75628;SDS011;64213;46.452;16.994;2023-03-04T01:20:52;45.03;;;17.58;;
75628;SDS011;64213;46.452;16.994;2023-03-04T01:23:54;42.08;;;16.55;;
75628;SDS011;64213;46.452;16.994;2023-03-04T01:26:56;44.73;;;17.73;;
75628;SDS011;64213;46.452;16.994;2023-03-04T01:29:58;46.85;;;16.83;;
75628;SDS011;64213;46.452;16.994;2023-03-04T01:33:00;47.00;;;15.73;;
75628;SDS011;64213;46.452;16.994;2023-03-04T01:36:02;43.50;;;16.85;;
75628;SDS011;64213;46.452;16.994;2023-03-04T01:39:05;36.35;;;16.15;;
75628;SDS011;64213;46.452;16.994;2023-03-04T01:42:41;52.70;;;16.17;;
75628;SDS011;64213;46.452;16.994;2023-03-04T01:45:36;34.10;;;15.43;;
75628;SDS011;64213;46.452;16.994;2023-03-04T01:48:40;35.55;;;15.20;;
75628;SDS011;64213;46.452;16.994;2023-03-04T01:51:45;50.08;;;19.70;;
75628;SDS011;64213;46.452;16.994;2023-03-04T01:54:50;54.00;;;16.80;;
75628;SDS011;64213;46.452;16.994;2023-03-04T01:57:52;49.23;;;17.77;;
75628;SDS011;64213;46.452;16.994;2023-03-04T02:00:55;43.83;;;17.40;;
75628;SDS011;64213;46.452;16.994;2023-03-04T02:03:58;41.33;;;16.52;;
75628;SDS011;64213;46.452;16.994;2023-03-04T02:07:01;49.33;;;16.40;;
75628;SDS011;64213;46.452;16.994;2023-03-04T02:10:04;47.05;;;18.48;;
75628;SDS011;64213;46.452;16.994;2023-03-04T02:13:07;60.03;;;19.67;;
75628;SDS011;64213;46.452;16.994;2023-03-04T02:16:09;53.53;;;19.27;;
75628;SDS011;64213;46.452;16.994;2023-03-04T02:19:13;42.85;;;19.25;;
75628;SDS011;64213;46.452;16.994;2023-03-04T02:22:26;55.83;;;17.62;;
75628;SDS011;64213;46.452;16.994;2023-03-04T02:25:32;47.65;;;17.23;;
75628;SDS011;64213;46.452;16.994;2023-03-04T02:28:40;52.80;;;18.03;;
75628;SDS011;64213;46.452;16.994;2023-03-04T02:31:44;52.90;;;21.48;;
75628;SDS011;64213;46.452;16.994;2023-03-04T02:34:54;42.15;;;17.25;;
75628;SDS011;64213;46.452;16.994;2023-03-04T02:37:57;68.12;;;18.37;;
75628;SDS011;64213;46.452;16.994;2023-03-04T02:40:59;58.97;;;17.73;;
75628;SDS011;64213;46.452;16.994;2023-03-04T02:44:01;53.97;;;19.57;;
75628;SDS011;64213;46.452;16.994;2023-03-04T02:47:05;53.05;;;19.52;;
75628;SDS011;64213;46.452;16.994;2023-03-04T02:50:08;50.97;;;17.30;;
75628;SDS011;64213;46.452;16.994;2023-03-04T02:53:11;55.22;;;17.90;;
75628;SDS011;64213;46.452;16.994;2023-03-04T02:56:13;46.83;;;18.75;;
75628;SDS011;64213;46.452;16.994;2023-03-04T02:59:16;44.83;;;18.63;;
75628;SDS011;64213;46.452;16.994;2023-03-04T03:02:18;41.93;;;16.37;;
75628;SDS011;64213;46.452;16.994;2023-03-04T03:05:21;41.70;;;16.70;;
75628;SDS011;64213;46.452;16.994;2023-03-04T03:08:25;41.20;;;17.48;;
75628;SDS011;64213;46.452;16.994;2023-03-04T03:11:28;38.40;;;18.12;;
75628;SDS011;64213;46.452;16.994;2023-03-04T03:14:30;44.13;;;19.33;;
75628;SDS011;64213;46.452;16.994;2023-03-04T03:17:32;39.28;;;19.15;;
75628;SDS011;64213;46.452;16.994;2023-03-04T03:20:34;41.80;;;17.45;;
75628;SDS011;64213;46.452;16.994;2023-03-04T03:23:37;48.40;;;18.95;;
75628;SDS011;64213;46.452;16.994;2023-03-04T03:26:39;43.55;;;16.83;;
75628;SDS011;64213;46.452;16.994;2023-03-04T03:29:41;46.13;;;18.40;;
75628;SDS011;64213;46.452;16.994;2023-03-04T03:32:43;44.13;;;18.98;;
75628;SDS011;64213;46.452;16.994;2023-03-04T03:35:45;44.58;;;19.17;;
75628;SDS011;64213;46.452;16.994;2023-03-04T03:38:48;47.80;;;19.52;;
75628;SDS011;64213;46.452;16.994;2023-03-04T03:41:50;43.72;;;18.62;;
75628;SDS011;64213;46.452;16.994;2023-03-04T03:44:52;40.03;;;17.80;;
75628;SDS011;64213;46.452;16.994;2023-03-04T03:47:54;42.42;;;17.58;;
75628;SDS011;64213;46.452;16.994;2023-03-04T03:50:56;37.30;;;17.65;;
75628;SDS011;64213;46.452;16.994;2023-03-04T03:53:58;43.53;;;18.67;;
75628;SDS011;64213;46.452;16.994;2023-03-04T03:57:00;40.28;;;17.42;;
75628;SDS011;64213;46.452;16.994;2023-03-04T04:00:06;50.57;;;16.40;;
75628;SDS011;64213;46.452;16.994;2023-03-04T04:03:10;41.80;;;16.02;;
75628;SDS011;64213;46.452;16.994;2023-03-04T04:06:16;39.72;;;16.67;;
75628;SDS011;64213;46.452;16.994;2023-03-04T04:09:18;42.90;;;17.33;;
75628;SDS011;64213;46.452;16.994;2023-03-04T04:12:20;50.08;;;15.32;;
75628;SDS011;64213;46.452;16.994;2023-03-04T04:15:22;40.13;;;13.77;;
75628;SDS011;64213;46.452;16.994;2023-03-04T04:18:24;36.78;;;17.73;;
75628;SDS011;64213;46.452;16.994;2023-03-04T04:21:26;38.80;;;14.85;;
75628;SDS011;64213;46.452;16.994;2023-03-04T04:24:28;35.90;;;16.17;;
75628;SDS011;64213;46.452;16.994;2023-03-04T04:27:30;31.98;;;14.77;;
75628;SDS011;64213;46.452;16.994;2023-03-04T04:30:33;50.07;;;17.90;;
75628;SDS011;64213;46.452;16.994;2023-03-04T04:33:36;36.10;;;15.65;;
75628;SDS011;64213;46.452;16.994;2023-03-04T04:36:38;21.15;;;10.73;;
75628;SDS011;64213;46.452;16.994;2023-03-04T04:39:40;33.80;;;15.68;;
75628;SDS011;64213;46.452;16.994;2023-03-04T04:42:42;39.28;;;17.87;;
75628;SDS011;64213;46.452;16.994;2023-03-04T04:45:44;42.00;;;17.00;;
75628;SDS011;64213;46.452;16.994;2023-03-04T04:48:47;34.90;;;16.37;;
75628;SDS011;64213;46.452;16.994;2023-03-04T04:51:50;44.85;;;17.92;;
75628;SDS011;64213;46.452;16.994;2023-03-04T04:54:52;31.87;;;14.05;;
75628;SDS011;64213;46.452;16.994;2023-03-04T04:57:54;51.10;;;18.40;;
75628;SDS011;64213;46.452;16.994;2023-03-04T05:00:56;44.77;;;19.40;;
75628;SDS011;64213;46.452;16.994;2023-03-04T05:03:58;48.90;;;16.83;;
75628;SDS011;64213;46.452;16.994;2023-03-04T05:07:01;37.90;;;16.92;;
75628;SDS011;64213;46.452;16.994;2023-03-04T05:10:03;41.15;;;16.27;;
75628;SDS011;64213;46.452;16.994;2023-03-04T05:13:06;40.33;;;15.55;;
75628;SDS011;64213;46.452;16.994;2023-03-04T05:16:08;40.03;;;18.73;;
75628;SDS011;64213;46.452;16.994;2023-03-04T05:19:11;39.33;;;16.33;;
75628;SDS011;64213;46.452;16.994;2023-03-04T05:22:13;38.90;;;16.67;;
75628;SDS011;64213;46.452;16.994;2023-03-04T05:25:15;39.78;;;16.48;;
75628;SDS011;64213;46.452;16.994;2023-03-04T05:28:17;39.20;;;16.87;;
75628;SDS011;64213;46.452;16.994;2023-03-04T05:31:20;33.97;;;16.73;;
75628;SDS011;64213;46.452;16.994;2023-03-04T05:34:22;30.95;;;15.93;;
75628;SDS011;64213;46.452;16.994;2023-03-04T05:37:24;27.20;;;14.87;;
75628;SDS011;64213;46.452;16.994;2023-03-04T05:40:26;29.58;;;14.50;;
75628;SDS011;64213;46.452;16.994;2023-03-04T05:43:29;42.70;;;18.15;;
75628;SDS011;64213;46.452;16.994;2023-03-04T05:46:31;29.57;;;12.63;;
75628;SDS011;64213;46.452;16.994;2023-03-04T05:49:34;45.92;;;19.45;;
75628;SDS011;64213;46.452;16.994;2023-03-04T05:52:36;38.33;;;18.87;;
75628;SDS011;64213;46.452;16.994;2023-03-04T05:55:38;43.33;;;19.25;;
75628;SDS011;64213;46.452;16.994;2023-03-04T05:58:40;34.55;;;16.83;;
75628;SDS011;64213;46.452;16.994;2023-03-04T06:01:43;33.17;;;15.20;;
75628;SDS011;64213;46.452;16.994;2023-03-04T06:04:45;39.05;;;20.00;;
75628;SDS011;64213;46.452;16.994;2023-03-04T06:07:47;39.97;;;20.15;;
75628;SDS011;64213;46.452;16.994;2023-03-04T06:10:54;49.90;;;23.55;;
75628;SDS011;64213;46.452;16.994;2023-03-04T06:13:57;59.28;;;28.30;;
75628;SDS011;64213;46.452;16.994;2023-03-04T06:16:59;49.03;;;22.70;;
75628;SDS011;64213;46.452;16.994;2023-03-04T06:20:02;45.30;;;21.33;;
75628;SDS011;64213;46.452;16.994;2023-03-04T06:23:06;43.65;;;20.98;;
75628;SDS011;64213;46.452;16.994;2023-03-04T06:26:08;46.60;;;22.52;;
75628;SDS011;64213;46.452;16.994;2023-03-04T06:29:16;37.05;;;20.05;;
75628;SDS011;64213;46.452;16.994;2023-03-04T06:32:18;43.83;;;19.90;;
75628;SDS011;64213;46.452;16.994;2023-03-04T06:35:20;45.33;;;21.55;;
75628;SDS011;64213;46.452;16.994;2023-03-04T06:38:23;44.42;;;21.20;;
75628;SDS011;64213;46.452;16.994;2023-03-04T06:41:26;47.35;;;20.75;;
75628;SDS011;64213;46.452;16.994;2023-03-04T06:44:28;49.55;;;22.55;;
75628;SDS011;64213;46.452;16.994;2023-03-04T06:47:30;48.33;;;22.20;;
75628;SDS011;64213;46.452;16.994;2023-03-04T06:50:33;43.03;;;21.60;;
75628;SDS011;64213;46.452;16.994;2023-03-04T06:53:35;47.22;;;21.83;;
75628;SDS011;64213;46.452;16.994;2023-03-04T06:56:38;42.72;;;20.10;;
75628;SDS011;64213;46.452;16.994;2023-03-04T06:59:40;35.90;;;17.77;;
75628;SDS011;64213;46.452;16.994;2023-03-04T07:02:42;43.33;;;21.23;;
75628;SDS011;64213;46.452;16.994;2023-03-04T07:05:44;60.20;;;26.90;;
75628;SDS011;64213;46.452;16.994;2023-03-04T07:08:47;63.90;;;26.27;;
75628;SDS011;64213;46.452;16.994;2023-03-04T07:11:49;58.25;;;26.02;;
75628;SDS011;64213;46.452;16.994;2023-03-04T07:14:51;44.63;;;19.95;;
75628;SDS011;64213;46.452;16.994;2023-03-04T07:17:53;34.37;;;16.40;;
75628;SDS011;64213;46.452;16.994;2023-03-04T07:20:56;35.93;;;17.07;;
75628;SDS011;64213;46.452;16.994;2023-03-04T07:23:58;33.22;;;15.55;;
75628;SDS011;64213;46.452;16.994;2023-03-04T07:27:00;38.15;;;18.40;;
75628;SDS011;64213;46.452;16.994;2023-03-04T07:30:02;38.40;;;18.52;;
75628;SDS011;64213;46.452;16.994;2023-03-04T07:33:08;35.97;;;16.53;;
75628;SDS011;64213;46.452;16.994;2023-03-04T07:36:11;33.57;;;15.47;;
75628;SDS011;64213;46.452;16.994;2023-03-04T07:39:15;29.85;;;16.00;;
75628;SDS011;64213;46.452;16.994;2023-03-04T07:42:17;30.42;;;15.88;;
75628;SDS011;64213;46.452;16.994;2023-03-04T07:45:20;29.87;;;15.75;;
75628;SDS011;64213;46.452;16.994;2023-03-04T07:48:23;29.13;;;15.77;;
75628;SDS011;64213;46.452;16.994;2023-03-04T07:51:26;33.93;;;17.63;;
75628;SDS011;64213;46.452;16.994;2023-03-04T07:54:28;34.58;;;17.00;;
75628;SDS011;64213;46.452;16.994;2023-03-04T07:57:30;38.78;;;17.92;;
75628;SDS011;64213;46.452;16.994;2023-03-04T08:00:32;33.28;;;16.62;;
75628;SDS011;64213;46.452;16.994;2023-03-04T08:03:34;30.53;;;16.07;;
75628;SDS011;64213;46.452;16.994;2023-03-04T08:06:36;35.60;;;17.60;;
75628;SDS011;64213;46.452;16.994;2023-03-04T08:09:42;40.45;;;21.33;;
75628;SDS011;64213;46.452;16.994;2023-03-04T08:12:44;36.75;;;17.85;;
75628;SDS011;64213;46.452;16.994;2023-03-04T08:15:46;33.38;;;17.23;;
75628;SDS011;64213;46.452;16.994;2023-03-04T08:18:50;26.20;;;13.87;;
75628;SDS011;64213;46.452;16.994;2023-03-04T08:21:54;31.63;;;16.07;;
75628;SDS011;64213;46.452;16.994;2023-03-04T08:24:56;31.58;;;16.10;;
75628;SDS011;64213;46.452;16.994;2023-03-04T08:27:58;26.42;;;14.00;;
75628;SDS011;64213;46.452;16.994;2023-03-04T08:31:00;32.65;;;16.77;;
75628;SDS011;64213;46.452;16.994;2023-03-04T08:34:02;34.13;;;16.67;;
75628;SDS011;64213;46.452;16.994;2023-03-04T08:37:05;30.97;;;16.03;;
75628;SDS011;64213;46.452;16.994;2023-03-04T08:40:08;26.65;;;13.60;;
75628;SDS011;64213;46.452;16.994;2023-03-04T08:43:11;32.22;;;16.55;;
75628;SDS011;64213;46.452;16.994;2023-03-04T08:46:13;33.78;;;16.40;;
75628;SDS011;64213;46.452;16.994;2023-03-04T08:49:16;28.97;;;16.10;;
75628;SDS011;64213;46.452;16.994;2023-03-04T08:52:18;31.87;;;15.70;;
75628;SDS011;64213;46.452;16.994;2023-03-04T08:55:20;30.48;;;16.85;;
75628;SDS011;64213;46.452;16.994;2023-03-04T08:58:22;30.98;;;15.70;;
75628;SDS011;64213;46.452;16.994;2023-03-04T09:01:25;30.45;;;15.55;;
75628;SDS011;64213;46.452;16.994;2023-03-04T09:04:27;34.63;;;17.23;;
75628;SDS011;64213;46.452;16.994;2023-03-04T09:07:29;31.70;;;14.53;;
75628;SDS011;64213;46.452;16.994;2023-03-04T09:10:31;32.22;;;16.90;;
75628;SDS011;64213;46.452;16.994;2023-03-04T09:13:33;31.73;;;14.87;;
75628;SDS011;64213;46.452;16.994;2023-03-04T09:16:36;32.28;;;16.30;;
75628;SDS011;64213;46.452;16.994;2023-03-04T09:19:38;35.80;;;17.40;;
75628;SDS011;64213;46.452;16.994;2023-03-04T09:22:40;36.20;;;17.63;;
75628;SDS011;64213;46.452;16.994;2023-03-04T09:25:43;31.52;;;16.50;;
75628;SDS011;64213;46.452;16.994;2023-03-04T09:28:51;37.38;;;17.70;;
75628;SDS011;64213;46.452;16.994;2023-03-04T09:31:54;34.58;;;17.00;;
75628;SDS011;64213;46.452;16.994;2023-03-04T09:34:56;34.83;;;17.93;;
75628;SDS011;64213;46.452;16.994;2023-03-04T09:37:58;35.23;;;17.47;;
75628;SDS011;64213;46.452;16.994;2023-03-04T09:41:01;35.53;;;16.77;;
75628;SDS011;64213;46.452;16.994;2023-03-04T09:44:15;29.33;;;15.82;;
75628;SDS011;64213;46.452;16.994;2023-03-04T09:47:26;37.85;;;18.85;;
75628;SDS011;64213;46.452;16.994;2023-03-04T09:50:30;36.47;;;18.03;;
75628;SDS011;64213;46.452;16.994;2023-03-04T09:53:39;34.07;;;16.67;;
75628;SDS011;64213;46.452;16.994;2023-03-04T09:56:48;35.05;;;16.67;;
75628;SDS011;64213;46.452;16.994;2023-03-04T10:00:38;38.42;;;19.17;;
75628;SDS011;64213;46.452;16.994;2023-03-04T10:03:24;30.85;;;16.30;;
75628;SDS011;64213;46.452;16.994;2023-03-04T10:06:33;38.70;;;18.95;;
75628;SDS011;64213;46.452;16.994;2023-03-04T10:12:48;36.05;;;17.65;;
75628;SDS011;64213;46.452;16.994;2023-03-04T10:15:53;38.08;;;18.15;;
75628;SDS011;64213;46.452;16.994;2023-03-04T10:19:14;37.65;;;17.45;;
75628;SDS011;64213;46.452;16.994;2023-03-04T10:22:27;37.05;;;19.02;;
75628;SDS011;64213;46.452;16.994;2023-03-04T10:25:35;35.13;;;16.90;;
75628;SDS011;64213;46.452;16.994;2023-03-04T10:28:45;39.38;;;18.40;;
75628;SDS011;64213;46.452;16.994;2023-03-04T10:31:48;33.50;;;16.37;;
75628;SDS011;64213;46.452;16.994;2023-03-04T10:34:50;38.45;;;18.58;;
75628;SDS011;64213;46.452;16.994;2023-03-04T10:37:52;38.00;;;19.58;;
75628;SDS011;64213;46.452;16.994;2023-03-04T10:40:55;35.70;;;17.20;;
75628;SDS011;64213;46.452;16.994;2023-03-04T10:47:04;40.17;;;19.00;;
75628;SDS011;64213;46.452;16.994;2023-03-04T10:50:15;38.10;;;17.60;;
75628;SDS011;64213;46.452;16.994;2023-03-04T10:53:28;35.63;;;17.35;;
75628;SDS011;64213;46.452;16.994;2023-03-04T10:56:43;30.87;;;14.23;;
75628;SDS011;64213;46.452;16.994;2023-03-04T11:03:22;41.47;;;18.87;;
75628;SDS011;64213;46.452;16.994;2023-03-04T11:06:30;40.95;;;16.90;;
75628;SDS011;64213;46.452;16.994;2023-03-04T11:09:33;38.47;;;18.12;;
75628;SDS011;64213;46.452;16.994;2023-03-04T11:12:35;32.40;;;13.20;;
75628;SDS011;64213;46.452;16.994;2023-03-04T11:16:21;37.97;;;17.73;;
75628;SDS011;64213;46.452;16.994;2023-03-04T11:19:23;35.38;;;16.70;;
75628;SDS011;64213;46.452;16.994;2023-03-04T11:22:36;32.47;;;14.23;;
75628;SDS011;64213;46.452;16.994;2023-03-04T11:25:43;34.33;;;16.23;;
75628;SDS011;64213;46.452;16.994;2023-03-04T11:31:55;33.20;;;15.82;;
75628;SDS011;64213;46.452;16.994;2023-03-04T11:38:51;33.17;;;16.35;;
75628;SDS011;64213;46.452;16.994;2023-03-04T11:41:55;32.38;;;15.40;;
75628;SDS011;64213;46.452;16.994;2023-03-04T11:45:04;31.60;;;14.97;;
75628;SDS011;64213;46.452;16.994;2023-03-04T11:48:42;30.05;;;14.68;;
75628;SDS011;64213;46.452;16.994;2023-03-04T11:55:30;31.10;;;14.73;;
75628;SDS011;64213;46.452;16.994;2023-03-04T12:12:10;34.60;;;16.98;;
75628;SDS011;64213;46.452;16.994;2023-03-04T12:15:19;29.08;;;14.55;;
75628;SDS011;64213;46.452;16.994;2023-03-04T12:18:32;31.00;;;15.43;;
75628;SDS011;64213;46.452;16.994;2023-03-04T12:31:38;28.30;;;15.15;;
75628;SDS011;64213;46.452;16.994;2023-03-04T12:34:47;29.83;;;15.57;;
75628;SDS011;64213;46.452;16.994;2023-03-04T12:38:00;29.52;;;15.35;;
75628;SDS011;64213;46.452;16.994;2023-03-04T12:41:21;25.12;;;13.90;;
75628;SDS011;64213;46.452;16.994;2023-03-04T12:44:24;26.00;;;13.60;;
75628;SDS011;64213;46.452;16.994;2023-03-04T12:47:33;27.02;;;13.68;;
75628;SDS011;64213;46.452;16.994;2023-03-04T12:50:46;24.77;;;12.37;;
75628;SDS011;64213;46.452;16.994;2023-03-04T12:54:07;26.33;;;12.45;;
75628;SDS011;64213;46.452;16.994;2023-03-04T12:57:18;26.17;;;13.00;;
75628;SDS011;64213;46.452;16.994;2023-03-04T13:07:11;21.33;;;10.60;;
75628;SDS011;64213;46.452;16.994;2023-03-04T13:10:35;23.38;;;11.52;;
75628;SDS011;64213;46.452;16.994;2023-03-04T13:13:39;22.08;;;12.55;;
75628;SDS011;64213;46.452;16.994;2023-03-04T13:19:51;19.95;;;10.43;;
75628;SDS011;64213;46.452;16.994;2023-03-04T13:22:58;21.37;;;10.70;;
75628;SDS011;64213;46.452;16.994;2023-03-04T13:29:31;24.27;;;11.07;;
75628;SDS011;64213;46.452;16.994;2023-03-04T13:32:36;20.70;;;10.45;;
75628;SDS011;64213;46.452;16.994;2023-03-04T13:42:37;20.45;;;9.73;;
75628;SDS011;64213;46.452;16.994;2023-03-04T13:45:44;23.52;;;11.00;;
75628;SDS011;64213;46.452;16.994;2023-03-04T13:51:51;22.85;;;10.75;;
75628;SDS011;64213;46.452;16.994;2023-03-04T13:55:40;20.43;;;9.97;;
75628;SDS011;64213;46.452;16.994;2023-03-04T13:58:35;22.37;;;9.55;;
75628;SDS011;64213;46.452;16.994;2023-03-04T14:01:48;19.85;;;9.85;;
75628;SDS011;64213;46.452;16.994;2023-03-04T14:07:55;21.70;;;10.68;;
75628;SDS011;64213;46.452;16.994;2023-03-04T14:10:57;22.03;;;10.40;;
75628;SDS011;64213;46.452;16.994;2023-03-04T14:14:01;21.60;;;10.05;;
75628;SDS011;64213;46.452;16.994;2023-03-04T14:17:05;23.98;;;11.02;;
75628;SDS011;64213;46.452;16.994;2023-03-04T14:20:37;20.98;;;9.13;;
75628;SDS011;64213;46.452;16.994;2023-03-04T14:23:58;20.80;;;9.40;;
75628;SDS011;64213;46.452;16.994;2023-03-04T14:27:11;23.43;;;11.03;;
75628;SDS011;64213;46.452;16.994;2023-03-04T14:30:19;20.58;;;9.35;;
75628;SDS011;64213;46.452;16.994;2023-03-04T14:33:43;22.45;;;11.32;;
75628;SDS011;64213;46.452;16.994;2023-03-04T14:36:48;20.90;;;9.88;;
75628;SDS011;64213;46.452;16.994;2023-03-04T14:39:51;23.25;;;9.88;;
75628;SDS011;64213;46.452;16.994;2023-03-04T14:42:59;22.47;;;10.20;;
75628;SDS011;64213;46.452;16.994;2023-03-04T14:46:07;22.58;;;10.60;;
75628;SDS011;64213;46.452;16.994;2023-03-04T14:49:14;24.02;;;11.63;;
75628;SDS011;64213;46.452;16.994;2023-03-04T14:59:10;23.83;;;10.73;;
75628;SDS011;64213;46.452;16.994;2023-03-04T15:02:23;23.25;;;9.75;;
75628;SDS011;64213;46.452;16.994;2023-03-04T15:05:32;20.20;;;9.57;;
75628;SDS011;64213;46.452;16.994;2023-03-04T15:08:36;21.90;;;9.70;;
75628;SDS011;64213;46.452;16.994;2023-03-04T15:14:46;24.17;;;11.67;;
75628;SDS011;64213;46.452;16.994;2023-03-04T15:17:57;25.98;;;11.68;;
75628;SDS011;64213;46.452;16.994;2023-03-04T15:21:05;25.98;;;11.35;;
75628;SDS011;64213;46.452;16.994;2023-03-04T15:24:28;21.90;;;11.10;;
75628;SDS011;64213;46.452;16.994;2023-03-04T15:27:30;19.12;;;9.50;;
75628;SDS011;64213;46.452;16.994;2023-03-04T15:30:33;26.80;;;13.03;;
75628;SDS011;64213;46.452;16.994;2023-03-04T15:33:36;30.08;;;12.98;;
75628;SDS011;64213;46.452;16.994;2023-03-04T15:36:40;24.10;;;10.93;;
75628;SDS011;64213;46.452;16.994;2023-03-04T15:39:43;29.15;;;12.88;;
75628;SDS011;64213;46.452;16.994;2023-03-04T15:42:45;22.62;;;10.30;;
75628;SDS011;64213;46.452;16.994;2023-03-04T15:45:49;29.20;;;13.00;;
75628;SDS011;64213;46.452;16.994;2023-03-04T15:48:52;26.65;;;12.15;;
75628;SDS011;64213;46.452;16.994;2023-03-04T15:51:55;25.95;;;11.07;;
75628;SDS011;64213;46.452;16.994;2023-03-04T15:54:57;27.00;;;11.02;;
75628;SDS011;64213;46.452;16.994;2023-03-04T15:58:00;24.58;;;11.82;;
75628;SDS011;64213;46.452;16.994;2023-03-04T16:01:04;26.80;;;12.43;;
75628;SDS011;64213;46.452;16.994;2023-03-04T16:04:11;25.88;;;11.88;;
75628;SDS011;64213;46.452;16.994;2023-03-04T16:07:21;27.90;;;12.30;;
75628;SDS011;64213;46.452;16.994;2023-03-04T16:10:26;39.78;;;16.08;;
75628;SDS011;64213;46.452;16.994;2023-03-04T16:13:31;50.87;;;19.40;;
75628;SDS011;64213;46.452;16.994;2023-03-04T16:16:33;34.10;;;13.93;;
75628;SDS011;64213;46.452;16.994;2023-03-04T16:19:36;35.45;;;15.90;;
75628;SDS011;64213;46.452;16.994;2023-03-04T16:22:39;35.50;;;12.95;;
75628;SDS011;64213;46.452;16.994;2023-03-04T16:25:45;28.92;;;12.90;;
75628;SDS011;64213;46.452;16.994;2023-03-04T16:28:50;30.40;;;13.43;;
75628;SDS011;64213;46.452;16.994;2023-03-04T16:31:55;32.57;;;13.80;;
75628;SDS011;64213;46.452;16.994;2023-03-04T16:34:57;31.05;;;13.40;;
75628;SDS011;64213;46.452;16.994;2023-03-04T16:37:59;29.48;;;11.82;;
75628;SDS011;64213;46.452;16.994;2023-03-04T16:41:02;27.27;;;12.48;;
75628;SDS011;64213;46.452;16.994;2023-03-04T16:44:04;26.40;;;10.93;;
75628;SDS011;64213;46.452;16.994;2023-03-04T16:47:09;31.80;;;12.60;;
75628;SDS011;64213;46.452;16.994;2023-03-04T16:50:16;31.98;;;13.65;;
75628;SDS011;64213;46.452;16.994;2023-03-04T16:53:31;30.65;;;13.48;;
75628;SDS011;64213;46.452;16.994;2023-03-04T16:56:36;30.27;;;12.60;;
75628;SDS011;64213;46.452;16.994;2023-03-04T16:59:39;29.07;;;13.70;;
75628;SDS011;64213;46.452;16.994;2023-03-04T17:02:41;30.83;;;12.57;;
75628;SDS011;64213;46.452;16.994;2023-03-04T17:05:44;31.90;;;13.13;;
75628;SDS011;64213;46.452;16.994;2023-03-04T17:08:48;27.10;;;11.32;;
75628;SDS011;64213;46.452;16.994;2023-03-04T17:11:51;23.60;;;9.45;;
75628;SDS011;64213;46.452;16.994;2023-03-04T17:14:53;29.00;;;11.23;;
75628;SDS011;64213;46.452;16.994;2023-03-04T17:17:56;30.23;;;13.10;;
75628;SDS011;64213;46.452;16.994;2023-03-04T17:21:03;37.40;;;14.70;;
75628;SDS011;64213;46.452;16.994;2023-03-04T17:24:07;38.95;;;15.35;;
75628;SDS011;64213;46.452;16.994;2023-03-04T17:27:12;35.00;;;15.48;;
75628;SDS011;64213;46.452;16.994;2023-03-04T17:30:15;32.80;;;13.30;;
75628;SDS011;64213;46.452;16.994;2023-03-04T17:33:18;30.27;;;14.90;;
75628;SDS011;64213;46.452;16.994;2023-03-04T17:36:21;35.15;;;15.55;;
75628;SDS011;64213;46.452;16.994;2023-03-04T17:39:24;39.70;;;15.55;;
75628;SDS011;64213;46.452;16.994;2023-03-04T17:42:27;30.12;;;12.75;;
75628;SDS011;64213;46.452;16.994;2023-03-04T17:45:30;27.13;;;11.03;;
75628;SDS011;64213;46.452;16.994;2023-03-04T17:48:33;31.50;;;13.53;;
75628;SDS011;64213;46.452;16.994;2023-03-04T17:51:37;40.10;;;16.10;;
75628;SDS011;64213;46.452;16.994;2023-03-04T17:54:41;35.67;;;15.18;;
75628;SDS011;64213;46.452;16.994;2023-03-04T17:57:46;38.05;;;15.57;;
75628;SDS011;64213;46.452;16.994;2023-03-04T18:00:50;33.90;;;15.37;;
75628;SDS011;64213;46.452;16.994;2023-03-04T18:03:55;34.90;;;16.43;;
75628;SDS011;64213;46.452;16.994;2023-03-04T18:06:58;36.78;;;16.12;;
75628;SDS011;64213;46.452;16.994;2023-03-04T18:10:01;35.35;;;15.93;;
75628;SDS011;64213;46.452;16.994;2023-03-04T18:13:05;39.60;;;17.23;;
75628;SDS011;64213;46.452;16.994;2023-03-04T18:16:08;38.20;;;16.13;;
75628;SDS011;64213;46.452;16.994;2023-03-04T18:19:15;40.03;;;18.80;;
75628;SDS011;64213;46.452;16.994;2023-03-04T18:22:19;40.47;;;18.42;;
75628;SDS011;64213;46.452;16.994;2023-03-04T18:25:22;42.95;;;19.10;;
75628;SDS011;64213;46.452;16.994;2023-03-04T18:28:25;44.13;;;18.87;;
75628;SDS011;64213;46.452;16.994;2023-03-04T18:31:28;43.07;;;18.80;;
75628;SDS011;64213;46.452;16.994;2023-03-04T18:34:34;40.50;;;17.17;;
75628;SDS011;64213;46.452;16.994;2023-03-04T18:37:37;43.05;;;18.20;;
75628;SDS011;64213;46.452;16.994;2023-03-04T18:40:40;45.75;;;18.67;;
75628;SDS011;64213;46.452;16.994;2023-03-04T18:43:44;40.35;;;17.15;;
75628;SDS011;64213;46.452;16.994;2023-03-04T18:46:49;41.33;;;17.77;;
75628;SDS011;64213;46.452;16.994;2023-03-04T18:49:55;43.17;;;17.47;;
75628;SDS011;64213;46.452;16.994;2023-03-04T18:52:59;43.47;;;17.67;;
75628;SDS011;64213;46.452;16.994;2023-03-04T18:56:45;44.25;;;18.40;;
75628;SDS011;64213;46.452;16.994;2023-03-04T19:02:46;42.30;;;18.23;;
75628;SDS011;64213;46.452;16.994;2023-03-04T19:06:12;42.60;;;17.47;;
75628;SDS011;64213;46.452;16.994;2023-03-04T19:09:14;39.75;;;16.95;;